Time;durP1;ratioP1;P1;durP2;ratioP2;P2;SDS_P1;SDS_P2;PMS_P1;PMS_P2;Temp;Humidity;BMP_temperature;BMP_pressure;BME280_temperature;BME280_humidity;BME280_pressure;Samples;Min_cycle;Max_cycle;Signal;HPM_P1;HPM_P2
2024/04/05 00:01:38;;;;;;;5.00;2.37;;;;;;;0.29;73.07;100965.03;4986830;28;20453;-78
2024/04/05 00:04:06;;;;;;;4.63;2.43;;;;;;;0.30;73.25;100951.31;4986243;28;20210;-78
2024/04/05 00:06:33;;;;;;;3.63;2.27;;;;;;;0.31;73.03;100955.63;4982826;28;20460;-77
2024/04/05 00:08:59;;;;;;;6.00;2.50;;;;;;;0.29;72.86;100938.41;4982884;28;20935;-78
2024/04/05 00:11:26;;;;;;;3.60;2.03;;;;;;;0.33;72.97;100945.34;4986438;28;20441;-79
2024/04/05 00:13:53;;;;;;;2.83;1.67;;;;;;;0.33;72.36;100937.63;4983046;28;20205;-78
2024/04/05 00:16:20;;;;;;;7.87;3.90;;;;;;;0.34;73.08;100937.69;4985083;28;20486;-77
2024/04/05 00:18:47;;;;;;;7.10;2.87;;;;;;;0.34;73.00;100923.97;4983824;28;20445;-78
2024/04/05 00:21:14;;;;;;;5.43;3.13;;;;;;;0.35;73.27;100925.69;4983112;28;20950;-78
2024/04/05 00:23:40;;;;;;;8.87;3.33;;;;;;;0.33;73.70;100911.91;4982366;28;20930;-77
2024/04/05 00:26:07;;;;;;;6.50;1.80;;;;;;;0.32;73.25;100917.91;4986002;28;20456;-78
2024/04/05 00:28:33;;;;;;;5.07;2.00;;;;;;;0.34;73.85;100911.94;4982336;28;20293;-78
2024/04/05 00:31:01;;;;;;;4.97;2.67;;;;;;;0.34;73.56;100901.66;4983697;28;20450;-77
2024/04/05 00:33:28;;;;;;;4.20;2.57;;;;;;;0.37;74.00;100894.81;4984562;28;20452;-78
2024/04/05 00:35:56;;;;;;;5.70;2.60;;;;;;;0.33;74.07;100892.19;4985724;28;20456;-79
2024/04/05 00:38:23;;;;;;;5.07;2.67;;;;;;;0.38;74.31;100896.56;4979545;28;20442;-80
2024/04/05 00:40:50;;;;;;;5.63;3.07;;;;;;;0.38;74.87;100899.16;4982778;28;20464;-78
2024/04/05 00:43:16;;;;;;;1.90;0.83;;;;;;;0.35;74.18;100887.94;4986054;28;20495;-77
2024/04/05 00:45:46;;;;;;;6.33;3.20;;;;;;;0.40;74.53;100895.75;4983645;28;20453;-80
2024/04/05 00:48:15;;;;;;;0.67;0.47;;;;;;;0.40;74.13;100893.19;4986981;28;20453;-79
2024/04/05 00:50:43;;;;;;;3.10;1.47;;;;;;;0.38;74.60;100887.13;4979129;28;20464;-78
2024/04/05 00:53:12;;;;;;;5.00;2.40;;;;;;;0.43;74.65;100894.97;4983146;28;20426;-78
2024/04/05 00:55:42;;;;;;;5.17;2.60;;;;;;;0.43;74.60;100890.69;4985752;28;20456;-77
2024/04/05 00:58:09;;;;;;;5.20;2.73;;;;;;;0.43;74.25;100892.41;4982590;28;20541;-76
2024/04/05 01:00:36;;;;;;;6.17;2.17;;;;;;;0.46;74.65;100883.03;4984997;28;20445;-76
2024/04/05 01:03:02;;;;;;;2.37;1.13;;;;;;;0.48;74.00;100883.94;4984279;28;20489;-78
2024/04/05 01:05:31;;;;;;;3.03;1.80;;;;;;;0.49;74.07;100885.66;4981971;28;20528;-78
2024/04/05 01:07:57;;;;;;;4.77;2.60;;;;;;;0.50;74.26;100878.78;4978631;28;20457;-75
2024/04/05 01:10:24;;;;;;;3.40;1.90;;;;;;;0.51;74.38;100870.25;4981748;28;20475;-77
2024/04/05 01:12:58;;;;;;;6.07;2.00;;;;;;;0.52;74.24;100872.84;4985109;28;20205;-78
2024/04/05 01:15:25;;;;;;;5.57;3.60;;;;;;;0.53;74.36;100872.00;4983277;28;20446;-77
2024/04/05 01:17:50;;;;;;;6.00;3.20;;;;;;;0.53;74.76;100856.53;4985184;28;20780;-76
2024/04/05 01:20:19;;;;;;;4.57;2.13;;;;;;;0.55;74.86;100860.03;4985522;28;20455;-76
2024/04/05 01:22:52;;;;;;;5.37;2.90;;;;;;;0.56;74.42;100851.44;4985108;28;20317;-77
2024/04/05 01:25:20;;;;;;;9.20;2.83;;;;;;;0.56;74.79;100851.44;4982255;28;20461;-77
2024/04/05 01:27:46;;;;;;;5.67;3.00;;;;;;;0.57;74.70;100845.47;4983832;28;20452;-77
2024/04/05 01:30:13;;;;;;;5.00;3.03;;;;;;;0.58;73.99;100843.78;4981096;28;20460;-76
2024/04/05 01:32:39;;;;;;;4.73;2.60;;;;;;;0.59;74.08;100848.06;4981084;28;20587;-77
2024/04/05 01:35:06;;;;;;;5.03;2.67;;;;;;;0.62;73.90;100849.84;4984164;28;20464;-76
2024/04/05 01:37:32;;;;;;;3.97;2.47;;;;;;;0.61;74.53;100848.13;4981788;28;20210;-76
2024/04/05 01:39:59;;;;;;;6.23;3.53;;;;;;;0.61;74.88;100840.38;4981205;28;20815;-78
2024/04/05 01:42:26;;;;;;;5.70;2.63;;;;;;;0.61;74.67;100842.97;4985043;28;20232;-78
2024/04/05 01:44:53;;;;;;;5.63;3.10;;;;;;;0.60;74.66;100839.53;4982465;28;20509;-80
2024/04/05 01:47:19;;;;;;;5.53;2.70;;;;;;;0.59;74.68;100835.19;4983529;28;20953;-79
2024/04/05 01:49:46;;;;;;;4.80;2.50;;;;;;;0.61;74.30;100830.09;4982916;28;20457;-79
2024/04/05 01:52:12;;;;;;;4.70;2.53;;;;;;;0.62;75.02;100831.81;4984598;28;20209;-79
2024/04/05 01:54:39;;;;;;;4.23;2.20;;;;;;;0.62;74.40;100824.09;4982169;28;20495;-78
2024/04/05 01:57:04;;;;;;;3.53;2.17;;;;;;;0.62;74.57;100824.94;4983848;28;20233;-80
2024/04/05 01:59:33;;;;;;;3.07;1.53;;;;;;;0.62;74.29;100830.09;4981659;28;20446;-79
2024/04/05 02:01:59;;;;;;;4.40;1.93;;;;;;;0.63;74.39;100819.00;4981346;28;20212;-77
2024/04/05 02:04:25;;;;;;;5.13;2.23;;;;;;;0.65;74.13;100813.84;4983887;28;20452;-77
2024/04/05 02:06:51;;;;;;;5.40;2.43;;;;;;;0.65;74.18;100813.84;4981945;28;20216;-76
2024/04/05 02:09:18;;;;;;;3.57;2.27;;;;;;;0.65;74.16;100812.16;4983171;28;20437;-76
2024/04/05 02:11:44;;;;;;;4.30;2.07;;;;;;;0.65;74.65;100804.44;4984281;28;20231;-74
2024/04/05 02:14:11;;;;;;;6.40;4.00;;;;;;;0.64;74.87;100802.69;4980529;28;20529;-75
2024/04/05 02:16:38;;;;;;;2.23;1.13;;;;;;;0.66;74.88;100792.44;4983593;28;20197;-73
2024/04/05 02:19:05;;;;;;;6.90;3.30;;;;;;;0.66;75.08;100789.84;4980879;28;20437;-74
2024/04/05 02:21:31;;;;;;;5.43;2.97;;;;;;;0.66;74.82;100787.28;4981007;28;20450;-73
2024/04/05 02:23:58;;;;;;;5.10;2.27;;;;;;;0.63;74.84;100782.06;4984150;28;20495;-74
2024/04/05 02:26:23;;;;;;;7.43;2.20;;;;;;;0.65;75.51;100783.84;4981845;28;20206;-76
2024/04/05 02:28:50;;;;;;;4.10;2.23;;;;;;;0.64;75.23;100774.38;4983435;28;20440;-76
2024/04/05 02:31:16;;;;;;;5.20;2.27;;;;;;;0.65;74.70;100775.22;4982261;28;20244;-75
2024/04/05 02:33:44;;;;;;;4.23;2.73;;;;;;;0.64;75.31;100768.34;4984865;28;20498;-75
2024/04/05 02:36:10;;;;;;;7.03;2.87;;;;;;;0.65;75.26;100770.06;4987253;28;20209;-75
2024/04/05 02:38:37;;;;;;;3.60;2.73;;;;;;;0.65;74.94;100772.66;4984923;28;20434;-75
2024/04/05 02:41:07;;;;;;;2.90;1.97;;;;;;;0.61;75.11;100763.16;4987684;28;20207;-76
2024/04/05 02:43:34;;;;;;;4.63;2.47;;;;;;;0.64;74.89;100761.50;4985013;28;20484;-75
2024/04/05 02:46:00;;;;;;;5.83;2.33;;;;;;;0.62;74.88;100752.00;4986466;28;20889;-76
2024/04/05 02:48:27;;;;;;;6.23;3.27;;;;;;;0.64;75.77;100760.63;4985754;28;20452;-75
2024/04/05 02:50:54;;;;;;;4.53;2.50;;;;;;;0.60;75.24;100743.41;4985798;28;20217;-76
2024/04/05 02:53:21;;;;;;;6.93;2.83;;;;;;;0.64;75.72;100747.75;4986778;28;20457;-77
2024/04/05 02:55:47;;;;;;;5.23;2.37;;;;;;;0.64;75.45;100743.47;4984579;28;20449;-77
2024/04/05 02:58:14;;;;;;;2.20;1.60;;;;;;;0.63;75.30;100734.03;4987366;28;20464;-75
2024/04/05 03:00:42;;;;;;;2.13;1.77;;;;;;;0.62;75.44;100731.41;4987603;28;20205;-74
2024/04/05 03:03:09;;;;;;;3.60;2.10;;;;;;;0.64;75.84;100725.44;4984680;28;20489;-74
2024/04/05 03:05:35;;;;;;;3.63;1.93;;;;;;;0.60;75.52;100717.66;4986396;28;20433;-74
2024/04/05 03:08:04;;;;;;;4.60;2.20;;;;;;;0.63;75.64;100720.28;4985336;28;20464;-75
2024/04/05 03:10:30;;;;;;;2.70;1.77;;;;;;;0.63;75.53;100713.41;4985145;28;20202;-74
2024/04/05 03:12:57;;;;;;;5.10;2.77;;;;;;;0.63;75.92;100708.28;4987440;28;20454;-77
2024/04/05 03:15:23;;;;;;;4.77;1.90;;;;;;;0.60;75.21;100694.50;4984206;28;20450;-78
2024/04/05 03:17:50;;;;;;;4.30;2.17;;;;;;;0.64;75.50;100711.72;4988622;28;20492;-77
2024/04/05 03:20:16;;;;;;;2.93;2.03;;;;;;;0.64;75.15;100711.72;4984590;28;20453;-77
2024/04/05 03:22:43;;;;;;;4.90;2.10;;;;;;;0.63;75.59;100713.41;4986275;28;20480;-76
2024/04/05 03:25:10;;;;;;;3.63;1.97;;;;;;;0.62;75.88;100700.50;4984791;28;20213;-77
2024/04/05 03:27:38;;;;;;;2.13;1.37;;;;;;;0.63;75.37;100702.25;4985130;28;20937;-77
2024/04/05 03:30:04;;;;;;;2.07;1.20;;;;;;;0.63;75.86;100709.97;4985830;28;20441;-78
2024/04/05 03:32:31;;;;;;;2.93;1.83;;;;;;;0.59;75.92;100696.16;4984052;28;20450;-78
2024/04/05 03:34:57;;;;;;;1.73;1.30;;;;;;;0.59;75.79;100685.88;4983026;28;20446;-78
2024/04/05 03:37:24;;;;;;;2.70;1.83;;;;;;;0.62;75.87;100696.22;4986755;28;20489;-78
2024/04/05 03:39:52;;;;;;;2.97;1.60;;;;;;;0.61;75.92;100691.91;4983838;28;20552;-78
2024/04/05 03:42:21;;;;;;;2.77;1.60;;;;;;;0.61;76.08;100691.06;4985519;28;20862;-78
2024/04/05 03:44:48;;;;;;;2.20;1.47;;;;;;;0.61;75.45;100684.19;4984899;28;20954;-78
2024/04/05 03:47:15;;;;;;;2.70;1.40;;;;;;;0.61;75.35;100691.91;4984286;28;20448;-78
2024/04/05 03:49:41;;;;;;;2.40;1.17;;;;;;;0.63;75.18;100686.81;4985977;28;20447;-78
2024/04/05 03:52:08;;;;;;;4.80;2.33;;;;;;;0.63;75.92;100697.09;4983375;28;20537;-78
2024/04/05 03:54:34;;;;;;;1.60;0.87;;;;;;;0.62;75.66;100693.63;4986546;28;20809;-76
2024/04/05 03:57:01;;;;;;;1.93;1.70;;;;;;;0.63;75.67;100689.38;4983590;28;20482;-77
2024/04/05 03:59:28;;;;;;;1.80;1.30;;;;;;;0.62;75.81;100677.34;4985459;28;20469;-78
2024/04/05 04:01:56;;;;;;;2.27;1.43;;;;;;;0.60;75.74;100679.03;4984549;28;20519;-80
2024/04/05 04:04:22;;;;;;;2.33;1.40;;;;;;;0.61;75.85;100673.03;4988668;28;20485;-81
2024/04/05 04:06:50;;;;;;;3.30;1.73;;;;;;;0.59;76.13;100678.16;4985110;28;20946;-80
2024/04/05 04:09:17;;;;;;;2.13;1.87;;;;;;;0.55;76.45;100659.22;4987089;28;20509;-80
2024/04/05 04:11:43;;;;;;;4.70;1.40;;;;;;;0.60;75.94;100671.31;4980592;28;20872;-79
2024/04/05 04:14:12;;;;;;;2.87;1.23;;;;;;;0.59;75.93;100673.00;4987987;28;20497;-80
2024/04/05 04:16:40;;;;;;;3.90;1.57;;;;;;;0.58;76.18;100661.84;4985126;28;20448;-81
2024/04/05 04:19:08;;;;;;;2.40;1.57;;;;;;;0.56;75.84;100660.94;4988485;28;20913;-79
2024/04/05 04:21:34;;;;;;;2.10;1.50;;;;;;;0.59;76.20;100665.28;4985929;28;20452;-79
2024/04/05 04:24:01;;;;;;;2.23;1.30;;;;;;;0.58;76.15;100661.84;4987217;28;20559;-83
2024/04/05 04:26:27;;;;;;;3.13;1.73;;;;;;;0.58;76.22;100664.41;4985662;28;20450;-84
2024/04/05 04:28:54;;;;;;;2.20;1.77;;;;;;;0.57;76.22;100656.69;4987365;28;20446;-84
2024/04/05 04:31:22;;;;;;;1.53;1.33;;;;;;;0.58;75.99;100653.25;4984995;28;20209;-84
2024/04/05 04:33:51;;;;;;;1.93;1.60;;;;;;;0.58;76.20;100650.69;4985391;28;20911;-77
2024/04/05 04:36:18;;;;;;;2.50;1.57;;;;;;;0.58;76.31;100650.69;4983795;28;20446;-77
2024/04/05 04:38:45;;;;;;;1.77;1.33;;;;;;;0.59;75.82;100657.56;4982357;28;20458;-77
2024/04/05 04:41:12;;;;;;;2.07;1.23;;;;;;;0.58;75.95;100643.81;4983112;28;20446;-78
2024/04/05 04:43:40;;;;;;;1.97;1.40;;;;;;;0.59;75.94;100642.09;4982035;28;20511;-77
2024/04/05 04:46:06;;;;;;;1.60;1.30;;;;;;;0.59;75.82;100649.81;4989483;28;20976;-78
2024/04/05 04:48:33;;;;;;;2.50;1.80;;;;;;;0.60;76.28;100645.56;4983562;28;20470;-77
2024/04/05 04:51:00;;;;;;;3.20;1.77;;;;;;;0.61;76.27;100647.28;4984829;28;20540;-78
2024/04/05 04:53:27;;;;;;;2.83;1.77;;;;;;;0.60;76.44;100646.44;4983543;28;20848;-77
2024/04/05 04:55:53;;;;;;;2.20;1.30;;;;;;;0.60;75.88;100643.84;4985207;28;20531;-78
2024/04/05 04:58:22;;;;;;;2.83;1.37;;;;;;;0.60;75.93;100645.56;4983499;28;20894;-77
2024/04/05 05:00:48;;;;;;;2.43;1.83;;;;;;;0.59;76.34;100629.22;4985637;28;20201;-77
2024/04/05 05:03:15;;;;;;;0.70;0.70;;;;;;;0.58;76.34;100625.78;4987017;28;21071;-77
2024/04/05 05:05:42;;;;;;;2.27;1.40;;;;;;;0.58;75.97;100612.91;4983401;28;20446;-77
2024/04/05 05:08:11;;;;;;;2.17;1.70;;;;;;;0.58;76.74;100602.63;4986451;28;20535;-78
2024/04/05 05:10:38;;;;;;;1.37;1.20;;;;;;;0.58;75.98;100600.06;4984495;28;20454;-79
2024/04/05 05:13:06;;;;;;;4.23;1.90;;;;;;;0.58;76.44;100597.47;4985763;28;20954;-78
2024/04/05 05:15:31;;;;;;;1.90;1.50;;;;;;;0.58;76.33;100587.19;4986530;28;20886;-80
2024/04/05 05:17:58;;;;;;;2.33;1.57;;;;;;;0.58;76.40;100592.31;4988777;28;20489;-79
2024/04/05 05:20:26;;;;;;;2.40;1.10;;;;;;;0.60;76.77;100594.94;4983587;28;20213;-78
2024/04/05 05:22:53;;;;;;;4.50;1.90;;;;;;;0.61;76.63;100603.53;4986598;28;20449;-81
2024/04/05 05:25:21;;;;;;;2.90;1.40;;;;;;;0.60;76.29;100604.38;4985444;28;21000;-78
2024/04/05 05:27:48;;;;;;;2.93;1.63;;;;;;;0.60;76.91;100609.53;4983681;28;20972;-79
2024/04/05 05:30:14;;;;;;;1.37;1.13;;;;;;;0.61;76.84;100612.09;4986171;28;20449;-80
2024/04/05 05:32:41;;;;;;;2.43;1.30;;;;;;;0.61;76.42;100599.22;4986431;28;20570;-81
2024/04/05 05:35:07;;;;;;;1.73;1.10;;;;;;;0.62;76.24;100602.66;4986459;28;20457;-79
2024/04/05 05:37:34;;;;;;;2.13;1.10;;;;;;;0.60;76.41;100594.94;4983020;28;20962;-80
2024/04/05 05:40:00;;;;;;;1.60;1.20;;;;;;;0.62;75.82;100593.22;4983318;28;20456;-79
2024/04/05 05:42:29;;;;;;;1.67;1.40;;;;;;;0.63;76.22;100584.69;4982705;28;20481;-81
2024/04/05 05:44:55;;;;;;;2.23;1.33;;;;;;;0.64;76.29;100578.69;4985159;28;20484;-82
2024/04/05 05:47:22;;;;;;;2.43;1.13;;;;;;;0.65;76.00;100584.69;4983721;28;20450;-79
2024/04/05 05:49:49;;;;;;;1.53;1.33;;;;;;;0.65;76.65;100583.00;4985888;28;20202;-81
2024/04/05 05:52:16;;;;;;;2.27;1.10;;;;;;;0.66;77.05;100589.88;4983083;28;20552;-76
2024/04/05 05:54:42;;;;;;;1.97;1.03;;;;;;;0.66;76.71;100583.88;4983729;28;20449;-76
2024/04/05 05:57:09;;;;;;;1.30;1.07;;;;;;;0.67;76.54;100583.00;4984778;28;20844;-76
2024/04/05 05:59:36;;;;;;;3.43;1.30;;;;;;;0.67;76.84;100583.00;4984884;28;20209;-75
2024/04/05 06:02:03;;;;;;;1.57;1.40;;;;;;;0.68;76.71;100579.59;4984392;28;20537;-80
2024/04/05 06:04:30;;;;;;;1.30;1.20;;;;;;;0.69;76.10;100584.78;4981937;28;20486;-76
2024/04/05 06:06:57;;;;;;;2.47;1.13;;;;;;;0.70;76.50;100583.91;4982842;28;20781;-78
2024/04/05 06:09:23;;;;;;;1.43;1.00;;;;;;;0.70;76.65;100577.91;4986111;28;20454;-76
2024/04/05 06:11:50;;;;;;;1.70;1.03;;;;;;;0.73;76.45;100575.38;4983907;28;20451;-77
2024/04/05 06:14:16;;;;;;;2.37;1.07;;;;;;;0.74;76.50;100579.69;4988545;28;20217;-76
2024/04/05 06:16:45;;;;;;;0.97;0.93;;;;;;;0.74;76.66;100567.69;4986611;28;20449;-77
2024/04/05 06:19:11;;;;;;;0.90;0.70;;;;;;;0.75;76.15;100568.53;4989679;28;20209;-78
2024/04/05 06:21:38;;;;;;;1.93;1.20;;;;;;;0.75;76.74;100565.97;4987018;28;20501;-76
2024/04/05 06:24:04;;;;;;;1.17;1.07;;;;;;;0.74;76.49;100566.81;4989144;28;20496;-79
2024/04/05 06:26:35;;;;;;;1.53;0.87;;;;;;;0.76;76.18;100565.97;4986482;28;20464;-78
2024/04/05 06:29:01;;;;;;;1.97;1.20;;;;;;;0.77;76.62;100572.00;4989257;28;20512;-80
2024/04/05 06:31:28;;;;;;;2.07;1.33;;;;;;;0.78;76.36;100568.59;4987601;28;20437;-79
2024/04/05 06:33:55;;;;;;;1.20;0.97;;;;;;;0.77;76.74;100567.72;4989839;28;20450;-81
2024/04/05 06:36:22;;;;;;;2.40;1.23;;;;;;;0.79;76.74;100562.56;4985720;28;20453;-79
2024/04/05 06:38:48;;;;;;;2.20;1.20;;;;;;;0.77;76.85;100562.56;4989474;28;20452;-79
2024/04/05 06:41:16;;;;;;;1.40;1.23;;;;;;;0.78;76.68;100566.00;4987038;28;20449;-79
2024/04/05 06:43:41;;;;;;;2.53;1.30;;;;;;;0.80;76.03;100561.75;4987077;28;20249;-78
2024/04/05 06:46:08;;;;;;;2.17;1.03;;;;;;;0.78;76.38;100559.13;4986858;28;20910;-78
2024/04/05 06:48:35;;;;;;;1.43;1.30;;;;;;;0.82;76.60;100564.34;4986382;28;20708;-79
2024/04/05 06:51:11;;;;;;;1.57;1.30;;;;;;;0.84;76.65;100568.66;4984745;28;20556;-78
2024/04/05 06:53:37;;;;;;;2.20;0.93;;;;;;;0.81;76.25;100558.31;4985260;28;20516;-77
2024/04/05 06:56:06;;;;;;;1.37;1.27;;;;;;;0.84;76.17;100566.09;4986419;28;20452;-76
2024/04/05 06:58:32;;;;;;;1.30;1.00;;;;;;;0.82;76.43;100559.19;4986364;28;20449;-78
2024/04/05 07:01:01;;;;;;;2.10;1.20;;;;;;;0.87;76.22;100567.84;4985515;28;20445;-79
2024/04/05 07:03:27;;;;;;;2.50;1.00;;;;;;;0.87;76.85;100563.56;4984187;28;20226;-78
2024/04/05 07:06:00;;;;;;;1.67;1.20;;;;;;;0.86;76.62;100566.13;4987745;28;20447;-77
2024/04/05 07:08:28;;;;;;;1.20;1.00;;;;;;;0.88;76.99;100570.44;4985206;28;20230;-77
2024/04/05 07:10:55;;;;;;;1.10;0.93;;;;;;;0.90;76.56;100567.88;4986049;28;20453;-77
2024/04/05 07:13:21;;;;;;;2.20;0.90;;;;;;;0.91;76.76;100570.50;4986539;28;20441;-78
2024/04/05 07:15:48;;;;;;;1.27;0.90;;;;;;;0.91;76.41;100564.47;4988070;28;20828;-77
2024/04/05 07:18:14;;;;;;;1.63;1.00;;;;;;;0.92;76.77;100563.63;4983038;28;20213;-77
2024/04/05 07:20:41;;;;;;;1.63;0.93;;;;;;;0.91;76.70;100557.63;4986895;28;20510;-76
2024/04/05 07:23:07;;;;;;;2.20;1.00;;;;;;;0.94;77.19;100554.22;4987370;28;20817;-78
2024/04/05 07:25:35;;;;;;;2.00;0.90;;;;;;;0.90;76.55;100548.13;4984362;28;20447;-79
2024/04/05 07:28:02;;;;;;;0.77;0.73;;;;;;;0.92;77.16;100543.88;4986627;28;20209;-79
2024/04/05 07:30:29;;;;;;;1.17;1.07;;;;;;;0.93;77.63;100548.16;4985591;28;20461;-77
2024/04/05 07:32:55;;;;;;;1.00;0.90;;;;;;;0.93;77.58;100550.75;4988014;28;20516;-78
2024/04/05 07:35:22;;;;;;;1.10;1.00;;;;;;;0.92;77.90;100551.59;4984552;28;20466;-78
2024/04/05 07:37:48;;;;;;;0.90;0.87;;;;;;;0.91;77.67;100547.31;4983291;28;20442;-77
2024/04/05 07:40:20;;;;;;;1.53;1.00;;;;;;;0.91;77.86;100543.88;4983453;28;20459;-77
2024/04/05 07:42:49;;;;;;;1.27;0.90;;;;;;;0.90;78.25;100548.13;4984210;28;20297;-79
2024/04/05 07:45:16;;;;;;;1.00;0.90;;;;;;;0.90;77.84;100545.56;4987040;28;20486;-78
2024/04/05 07:47:42;;;;;;;1.57;0.80;;;;;;;0.84;78.05;100532.59;4984707;28;20457;-79
2024/04/05 07:50:09;;;;;;;1.00;0.90;;;;;;;0.87;78.47;100537.78;4985567;28;20456;-78
2024/04/05 07:52:35;;;;;;;0.83;0.77;;;;;;;0.88;78.14;100538.66;4983850;28;20442;-77
2024/04/05 07:55:03;;;;;;;3.40;0.90;;;;;;;0.87;78.62;100527.50;4986600;28;20843;-77
2024/04/05 07:57:29;;;;;;;1.00;0.90;;;;;;;0.88;78.57;100538.66;4983113;28;20231;-77
2024/04/05 07:59:57;;;;;;;0.90;0.90;;;;;;;0.88;78.59;100533.50;4983737;28;20454;-78
2024/04/05 08:02:28;;;;;;;1.33;0.80;;;;;;;0.83;78.20;100527.44;4985433;28;20207;-78
2024/04/05 08:04:56;;;;;;;1.20;0.87;;;;;;;0.87;78.93;100526.63;4985276;28;20489;-78
2024/04/05 08:07:23;;;;;;;0.70;0.70;;;;;;;0.84;78.85;100524.88;4984469;28;20538;-77
2024/04/05 08:09:52;;;;;;;2.07;0.90;;;;;;;0.85;78.52;100526.63;4983935;28;20490;-78
2024/04/05 08:12:18;;;;;;;1.13;0.83;;;;;;;0.80;78.98;100520.53;4982859;28;20444;-78
2024/04/05 08:14:45;;;;;;;1.10;0.80;;;;;;;0.70;79.05;100498.94;4982826;28;20853;-77
2024/04/05 08:17:13;;;;;;;1.40;0.83;;;;;;;0.87;78.80;100522.34;4984487;28;20296;-78
2024/04/05 08:19:40;;;;;;;0.80;0.70;;;;;;;0.89;78.51;100525.81;4984406;28;20468;-78
2024/04/05 08:22:06;;;;;;;0.83;0.70;;;;;;;0.88;78.17;100521.50;4985107;28;20449;-77
2024/04/05 08:24:35;;;;;;;0.90;0.63;;;;;;;0.92;79.34;100530.13;4983387;28;20493;-78
2024/04/05 08:27:00;;;;;;;0.80;0.70;;;;;;;0.90;78.87;100521.50;4986253;28;20456;-77
2024/04/05 08:29:28;;;;;;;0.93;0.80;;;;;;;0.94;79.25;100526.75;4982112;28;20841;-78
2024/04/05 08:31:54;;;;;;;0.80;0.80;;;;;;;0.93;79.10;100519.84;4985316;28;20211;-77
2024/04/05 08:34:22;;;;;;;1.17;0.87;;;;;;;0.96;79.07;100531.91;4983697;28;20962;-76
2024/04/05 08:36:48;;;;;;;1.47;0.67;;;;;;;0.95;79.36;100525.03;4984410;28;20201;-77
2024/04/05 08:39:17;;;;;;;0.67;0.63;;;;;;;0.95;78.87;100530.19;4984905;28;20476;-78
2024/04/05 08:41:45;;;;;;;0.70;0.63;;;;;;;0.97;79.27;100529.34;4983384;28;20206;-78
2024/04/05 08:44:13;;;;;;;1.17;0.63;;;;;;;0.97;78.99;100528.50;4985700;28;20783;-81
2024/04/05 08:46:40;;;;;;;1.47;0.67;;;;;;;0.93;78.85;100516.41;4983162;28;20456;-80
2024/04/05 08:49:07;;;;;;;0.80;0.67;;;;;;;0.95;78.54;100517.28;4983260;28;20453;-80
2024/04/05 08:51:37;;;;;;;0.63;0.63;;;;;;;1.01;79.06;100531.09;4986764;28;20994;-81
2024/04/05 08:54:05;;;;;;;1.30;0.73;;;;;;;1.00;78.96;100520.78;4985833;28;20490;-81
2024/04/05 08:56:31;;;;;;;0.60;0.60;;;;;;;0.90;78.77;100506.06;4987162;28;20477;-81
2024/04/05 08:59:01;;;;;;;0.43;0.40;;;;;;;1.05;78.97;100536.28;4987456;28;20445;-80
2024/04/05 09:01:27;;;;;;;1.00;0.60;;;;;;;0.96;78.72;100517.31;4984977;28;20445;-80
2024/04/05 09:03:55;;;;;;;0.50;0.50;;;;;;;1.08;78.47;100526.91;4986994;28;20488;-80
2024/04/05 09:06:21;;;;;;;0.60;0.60;;;;;;;1.07;78.85;100526.88;4987937;28;20515;-80
2024/04/05 09:08:50;;;;;;;0.47;0.47;;;;;;;1.12;78.67;100533.81;4986076;28;20942;-81
2024/04/05 09:11:19;;;;;;;0.50;0.50;;;;;;;1.15;78.42;100530.41;4990987;28;20283;-82
2024/04/05 09:13:56;;;;;;;0.60;0.60;;;;;;;1.13;78.55;100521.78;4983220;28;20951;-81
2024/04/05 09:16:23;;;;;;;0.80;0.53;;;;;;;1.18;78.68;100527.88;4984333;28;20864;-80
2024/04/05 09:18:50;;;;;;;0.63;0.63;;;;;;;1.18;78.56;100528.72;4988274;28;20479;-82
2024/04/05 09:21:17;;;;;;;0.87;0.60;;;;;;;1.20;78.87;100521.91;5002118;28;20445;-81
2024/04/05 09:23:46;;;;;;;0.53;0.53;;;;;;;1.24;78.77;100520.22;5002210;28;21020;-85
2024/04/05 09:26:18;;;;;;;0.60;0.60;;;;;;;1.26;78.39;100518.53;5002628;28;20458;-85
2024/04/05 09:28:46;;;;;;;1.07;0.60;;;;;;;1.28;78.69;100516.84;5005210;28;20941;-85
2024/04/05 09:31:18;;;;;;;0.50;0.50;;;;;;;1.30;78.20;100515.13;5006321;28;20455;-85
2024/04/05 09:33:45;;;;;;;0.77;0.63;;;;;;;1.30;78.35;100514.25;5005438;28;20867;-84
2024/04/05 09:36:17;;;;;;;0.50;0.50;;;;;;;1.34;78.61;100516.91;5002245;28;20461;-85
2024/04/05 09:38:45;;;;;;;0.67;0.40;;;;;;;1.34;78.54;100514.31;5002683;28;20453;-84
2024/04/05 09:41:14;;;;;;;0.63;0.63;;;;;;;1.25;78.68;100486.75;5005879;28;20451;-85
2024/04/05 09:43:43;;;;;;;1.10;0.60;;;;;;;1.39;78.44;100507.50;5004385;28;20452;-85
2024/04/05 09:46:14;;;;;;;0.63;0.53;;;;;;;1.41;78.33;100512.66;5002798;28;20814;-85
2024/04/05 09:48:41;;;;;;;1.20;0.60;;;;;;;1.43;78.58;100516.13;5006895;28;20456;-83
2024/04/05 09:51:13;;;;;;;0.40;0.40;;;;;;;1.44;78.74;100508.41;5004743;28;20518;-83
2024/04/05 09:53:45;;;;;;;0.77;0.70;;;;;;;1.42;78.84;100497.22;5002745;28;20446;-77
2024/04/05 09:56:15;;;;;;;0.40;0.40;;;;;;;1.52;78.59;100507.63;5000450;28;20505;-76
2024/04/05 09:58:44;;;;;;;0.43;0.43;;;;;;;1.54;78.62;100505.94;5000156;28;20446;-75
2024/04/05 10:01:10;;;;;;;0.37;0.37;;;;;;;1.56;78.62;100511.94;5002744;28;20454;-77
2024/04/05 10:03:39;;;;;;;0.40;0.33;;;;;;;1.59;78.17;100501.66;5001328;28;21021;-77
2024/04/05 10:06:13;;;;;;;0.50;0.50;;;;;;;1.60;78.55;100496.53;5001780;28;20441;-77
2024/04/05 10:08:40;;;;;;;0.60;0.50;;;;;;;1.63;78.29;100498.28;5003484;28;20926;-77
2024/04/05 10:11:10;;;;;;;1.53;1.00;;;;;;;1.65;78.63;100494.00;4998221;28;20833;-76
2024/04/05 10:13:38;;;;;;;0.53;0.53;;;;;;;1.64;78.25;100493.13;5000047;28;20477;-79
2024/04/05 10:16:06;;;;;;;0.87;0.60;;;;;;;1.71;78.34;100499.22;5002083;28;20511;-79
2024/04/05 10:18:37;;;;;;;0.83;0.70;;;;;;;1.69;78.62;100499.19;4999931;28;20948;-79
2024/04/05 10:21:07;;;;;;;1.23;0.70;;;;;;;1.78;78.41;100511.31;5003303;28;20964;-78
2024/04/05 10:23:35;;;;;;;1.43;0.70;;;;;;;1.80;78.22;100509.59;5000568;28;20452;-79
2024/04/05 10:26:07;;;;;;;1.20;0.70;;;;;;;1.84;78.15;100511.34;5002262;28;20506;-77
2024/04/05 10:28:34;;;;;;;1.00;0.80;;;;;;;1.87;78.36;100524.28;4999682;28;20796;-78
2024/04/05 10:31:00;;;;;;;1.37;0.60;;;;;;;1.87;78.51;100516.53;5003611;28;20451;-78
2024/04/05 10:33:29;;;;;;;0.93;0.60;;;;;;;1.88;78.36;100507.97;5003318;28;20453;-77
2024/04/05 10:35:57;;;;;;;1.37;0.63;;;;;;;1.99;77.89;100527.81;4949134;28;20487;-78
2024/04/05 10:38:25;;;;;;;0.57;0.57;;;;;;;2.01;78.43;100529.56;5002562;28;20437;-79
2024/04/05 10:40:58;;;;;;;0.60;0.60;;;;;;;2.04;78.08;100532.16;5001107;28;20446;-78
2024/04/05 10:43:25;;;;;;;1.00;0.60;;;;;;;2.07;78.01;100532.19;5000738;28;20448;-77
2024/04/05 10:45:52;;;;;;;0.53;0.53;;;;;;;2.09;78.15;100527.91;5003100;28;20592;-79
2024/04/05 10:48:19;;;;;;;0.60;0.60;;;;;;;2.05;77.76;100521.00;4999656;28;20960;-77
2024/04/05 10:50:47;;;;;;;1.03;0.60;;;;;;;2.13;77.86;100529.69;5002485;28;20829;-77
2024/04/05 10:53:16;;;;;;;0.77;0.73;;;;;;;2.16;77.88;100531.44;5001913;28;20471;-76
2024/04/05 10:55:43;;;;;;;1.20;0.63;;;;;;;2.12;77.68;100522.78;5005214;28;20886;-79
2024/04/05 10:58:11;;;;;;;0.70;0.70;;;;;;;2.03;77.92;100493.47;5006906;28;20485;-79
2024/04/05 11:00:38;;;;;;;1.07;0.80;;;;;;;2.17;77.80;100515.06;5004711;28;20448;-78
2024/04/05 11:03:07;;;;;;;1.10;0.77;;;;;;;2.19;77.48;100520.22;5003844;28;20846;-82
2024/04/05 11:05:34;;;;;;;0.97;0.70;;;;;;;2.20;77.96;100530.59;5009174;28;20499;-80
2024/04/05 11:08:04;;;;;;;0.70;0.70;;;;;;;2.20;77.65;100528.00;5004556;28;21027;-81
2024/04/05 11:10:31;;;;;;;0.80;0.70;;;;;;;2.21;77.71;100532.31;5008319;28;20556;-80
2024/04/05 11:12:59;;;;;;;1.33;0.83;;;;;;;2.23;77.71;100533.19;5008484;28;20894;-82
2024/04/05 11:15:25;;;;;;;0.77;0.77;;;;;;;2.16;77.78;100513.34;5008302;28;20447;-81
2024/04/05 11:17:59;;;;;;;0.90;0.70;;;;;;;2.26;77.53;100514.28;5004161;28;20469;-81
2024/04/05 11:20:27;;;;;;;1.20;1.10;;;;;;;2.27;77.51;100511.72;5000200;28;20997;-81
2024/04/05 11:23:01;;;;;;;1.20;1.10;;;;;;;2.26;77.84;100511.69;5004205;28;20494;-81
2024/04/05 11:25:29;;;;;;;1.60;0.80;;;;;;;2.29;77.54;100514.28;5007320;28;20824;-82
2024/04/05 11:27:56;;;;;;;1.17;1.07;;;;;;;2.30;77.90;100511.75;5004457;28;20455;-82
2024/04/05 11:30:22;;;;;;;1.20;1.10;;;;;;;2.33;77.79;100516.91;5003942;28;20452;-80
2024/04/05 11:32:49;;;;;;;1.00;0.90;;;;;;;2.36;77.61;100518.66;5006208;28;20449;-81
2024/04/05 11:35:15;;;;;;;2.00;1.03;;;;;;;2.35;77.61;100519.50;5005430;28;20443;-82